Latest Coastal Weather Observations for Townsville

IDQ60701

Issued at 6:31 pm EST Wednesday 7 December 2016 (issued every 10 minutes, with the page automatically refreshed every 10 minutes)

About coastal observations | Map of coastal stations | Coastal observations for QLD | Marine services | Other Formats
Station Details ID: 032040 Name: TOWNSVILLE AERO Lat: -19.25 Lon: 146.77 Height: 4.34 m
Data from the previous 72 hours. | See also: Recent months at Townsville
Date/Time
EST
Temp
°C
Wind Pressure Rain since
9am
mm
Weather Cloud Vis
km
Sea
Height
m
Swell
Dir  Spd
kts
Gust
kts
hPa Trend Height
m
Period
s
Dir
07/06:00pm 28.4 ENE 14 16 1011.0 R 0.0 - - - - - - -
07/05:30pm 29.0 ENE 15 19 1010.8 - 0.0 - Mostly clear 10 - - - -
07/05:00pm 29.3 ENE 15 19 1010.7 - 0.0 - Mostly clear 10 - - - -
07/04:30pm 29.7 ENE 14 17 1010.3 - 0.0 - Mostly clear 10 - - - -
07/04:00pm 30.1 ENE 15 19 1010.3 - 0.0 - Mostly clear 10 - - - -
07/03:30pm 30.2 ENE 15 19 1010.5 - 0.0 - Mostly clear 10 - - - -
07/03:00pm 30.2 ENE 15 18 1010.7 R 0.0 - Mostly clear 10 - - - -
07/02:30pm 30.4 ENE 14 18 1010.9 - 0.0 - Mostly clear 10 - - - -
07/02:00pm 30.4 ENE 15 18 1011.3 - 0.0 - Mostly clear 10 - - - -
07/01:30pm 30.7 ENE 13 17 1011.6 - 0.0 - Mostly clear 10 - - - -
07/01:00pm 30.3 ENE 12 18 1011.9 - 0.0 - Mostly clear 10 - - - -
07/12:30pm 31.7 NE 12 17 1012.0 - 0.0 - Mostly clear 10 - - - -
07/12:00pm 31.6 NE 13 18 1012.1 R 0.0 - Mostly clear 10 - - - -
07/11:30am 30.5 NE 11 14 1012.3 - 0.0 - Mostly clear 10 - - - -
07/11:00am 30.7 ENE 8 14 1012.4 - 0.0 - Mostly clear 10 - - - -
07/10:30am 30.2 NE 9 13 1012.5 - 0.0 - Mostly clear 10 - - - -
07/10:00am 30.1 ENE 9 14 1012.6 - 0.0 - Mostly clear 10 - - - -
07/09:30am 29.7 ENE 11 14 1012.7 - 0.0 - Mostly clear 10 - - - -
07/09:00am 28.9 ENE 9 14 1012.6 F 0.0 - Mostly clear 10 - - - -
07/08:30am 29.1 ENE 7 10 1012.6 - 0.0 - Mostly clear 10 - - - -
07/08:00am 28.9 NNE 7 11 1012.6 - 0.0 - Mostly clear 10 - - - -
07/07:30am 27.9 NNE 6 9 1012.5 - 0.0 - Mostly clear 10 - - - -
07/07:00am 27.7 NNE 7 9 1012.3 - 0.0 - Mostly clear 10 - - - -
07/06:30am 27.4 NNE 8 11 1011.9 - 0.0 - Mostly clear 10 - - - -
07/06:00am 26.9 ENE 9 13 1011.4 R 0.0 - Partly cloudy 10 - - - -
07/05:30am 25.4 ESE 4 6 1011.2 - 0.0 - Partly cloudy 10 - - - -
07/05:00am 25.6 SE 6 7 1010.8 - 0.0 - Cloudy 10 - - - -
07/04:30am 25.5 SE 7 8 1010.4 - 0.0 - Partly cloudy 10 - - - -
07/04:00am 26.0 ESE 6 8 1010.4 - 0.0 - Partly cloudy 10 - - - -
07/03:30am 26.4 ENE 8 11 1010.2 - 0.0 - Partly cloudy 10 - - - -
07/03:00am 26.3 E 8 15 1010.4 R 0.0 - Cloudy 10 - - - -
07/02:30am 26.3 E 8 11 1010.5 - 0.0 - Partly cloudy 10 - - - -
07/02:00am 26.4 E 10 14 1010.4 - 0.0 - Partly cloudy 10 - - - -
07/01:30am 26.5 E 8 12 1010.8 - 0.0 - Partly cloudy 10 - - - -
07/01:00am 26.4 ENE 9 14 1011.0 - 0.0 - Partly cloudy 10 - - - -
07/12:30am 26.7 ENE 10 14 1011.2 - 0.0 - Partly cloudy 10 - - - -
07/12:00am 26.7 E 12 16 1011.5 F 0.0 - Mostly cloudy 10 - - - -
 
Date/Time
EST
Temp
°C
Wind Pressure Rain since
9am
mm
Weather Cloud Vis
km
Sea
Height
m
Swell
Dir  Spd
kts
Gust
kts
hPa Trend Height
m
Period
s
Dir
06/11:30pm 26.7 E 10 14 1012.0 - 0.0 - Partly cloudy 10 - - - -
06/11:00pm 26.6 E 7 10 1012.3 - 0.0 - Partly cloudy 10 - - - -
06/10:30pm 26.6 E 8 10 1012.6 - 0.0 - Partly cloudy 10 - - - -
06/10:00pm 26.4 ESE 6 8 1012.5 - 0.0 - Partly cloudy 10 - - - -
06/09:30pm 26.8 ENE 8 10 1012.4 - 0.0 - Partly cloudy 10 - - - -
06/09:00pm 26.9 ENE 8 10 1012.2 F 0.0 - Mostly cloudy 10 - - - -
06/08:30pm 26.9 E 7 8 1012.2 - 0.0 - Partly cloudy 10 - - - -
06/08:00pm 26.9 E 8 10 1012.2 - 0.0 - Partly cloudy 10 - - - -
06/07:30pm 27.0 ENE 11 15 1011.8 - 0.0 - - 10 - - - -
06/07:00pm 27.3 ENE 12 16 1011.6 - 0.0 - - 10 - - - -
06/06:30pm 27.6 ENE 15 18 1011.3 - 0.0 - - 10 - - - -
06/06:00pm 28.2 ENE 15 18 1011.1 F 0.0 - - 10 - - - -
06/05:30pm 28.8 ENE 14 17 1011.2 - 0.0 - Mostly clear 10 - - - -
06/05:00pm 29.3 ENE 15 19 1011.0 - 0.0 - Mostly clear 10 - - - -
06/04:30pm 29.6 ENE 15 18 1010.9 - 0.0 - Mostly clear 10 - - - -
06/04:00pm 29.8 ENE 15 19 1011.1 - 0.0 - Mostly clear 10 - - - -
06/03:30pm 30.0 ENE 15 18 1011.1 - 0.0 - Mostly clear 10 - - - -
06/03:00pm 30.7 ENE 16 20 1011.2 F 0.0 - Mostly clear 10 - - - -
06/02:30pm 31.4 ENE 16 19 1011.3 - 0.0 - Mostly clear 10 - - - -
06/02:00pm 31.2 ENE 14 18 1011.7 - 0.0 - Mostly clear 10 - - - -
06/01:30pm 31.1 NE 15 19 1012.2 - 0.0 - Mostly clear 10 - - - -
06/01:00pm 30.8 ENE 15 19 1012.5 - 0.0 - Mostly clear 10 - - - -
06/12:30pm 30.7 NE 15 19 1012.8 - 0.0 - Mostly clear 10 - - - -
06/12:00pm 31.2 ENE 14 18 1013.1 F 0.0 - Mostly clear 10 - - - -
06/11:30am 30.8 NE 13 17 1013.5 - 0.0 - Mostly clear 10 - - - -
06/11:00am 30.5 ENE 14 19 1014.0 - 0.0 - Mostly clear 10 - - - -
06/10:30am 30.2 ENE 12 16 1014.4 - 0.0 - Mostly clear 10 - - - -
06/10:00am 30.4 ENE 11 15 1014.9 - 0.0 - Mostly clear 10 - - - -
06/09:30am 29.4 NE 12 17 1015.0 - 0.0 - Mostly clear 10 - - - -
06/09:00am 29.7 ENE 10 14 1015.0 R 0.0 - Mostly clear 10 - - - -
06/08:30am 30.0 ENE 10 15 1015.0 - 0.0 - Mostly clear 10 - - - -
06/08:00am 28.8 NE 9 14 1014.8 - 0.0 - Mostly clear 10 - - - -
06/07:30am 28.8 ENE 9 14 1014.5 - 0.0 - Mostly clear 10 - - - -
06/07:00am 28.0 SE 6 9 1014.3 - 0.0 - Partly cloudy 10 - - - -
06/06:30am 26.8 SE 6 8 1014.1 - 0.0 - Mostly clear 10 - - - -
06/06:00am 25.9 SE 7 9 1013.5 R 0.0 - Mostly cloudy 10 - - - -
06/05:30am 25.4 SE 6 7 1013.2 - 0.0 - Partly cloudy 10 - - - -
06/05:00am 25.5 SE 6 7 1012.8 - 0.0 - Partly cloudy 10 - - - -
06/04:30am 25.3 SSE 5 6 1012.4 - 0.0 - - 10 - - - -
06/04:00am 25.5 SE 6 7 1012.1 - 0.0 - Partly cloudy 10 - - - -
06/03:30am 26.1 SE 6 8 1012.1 - 0.0 - Partly cloudy 10 - - - -
06/03:00am 26.0 SE 6 6 1012.0 R 0.0 - Cloudy 10 - - - -
06/02:30am 26.1 ESE 6 9 1012.1 - 0.0 - Partly cloudy 10 - - - -
06/02:00am 26.2 E 4 6 1012.2 - 0.0 - Partly cloudy 10 - - - -
06/01:30am 26.4 E 5 6 1012.4 - 0.0 - Partly cloudy 10 - - - -
06/01:00am 26.4 ENE 6 7 1012.5 - 0.0 - Partly cloudy 10 - - - -
06/12:30am 26.5 ENE 7 9 1012.7 - 0.0 - Partly cloudy 10 - - - -
06/12:00am 26.8 ENE 8 10 1013.0 F 0.0 - Mostly clear 10 - - - -
 
Date/Time
EST
Temp
°C
Wind Pressure Rain since
9am
mm
Weather Cloud Vis
km
Sea
Height
m
Swell
Dir  Spd
kts
Gust
kts
hPa Trend Height
m
Period
s
Dir
05/11:30pm 26.9 ENE 8 10 1013.1 - 0.0 - Partly cloudy 10 - - - -
05/11:00pm 26.7 ENE 8 9 1013.3 - 0.0 - - 10 - - - -
05/10:30pm 26.6 ENE 8 10 1013.4 - 0.0 - Partly cloudy 10 - - - -
05/10:00pm 26.8 ENE 8 10 1013.4 - 0.0 - Partly cloudy 10 - - - -
05/09:30pm 26.5 E 7 8 1013.3 - 0.0 - Partly cloudy 10 - - - -
05/09:00pm 26.6 ENE 8 10 1013.1 F 0.0 - Mostly clear 10 - - - -
05/08:30pm 26.6 ENE 7 8 1013.1 - 0.0 - - 10 - - - -
05/08:00pm 26.8 ENE 8 9 1013.0 - 0.0 - - 10 - - - -
05/07:30pm 27.0 ENE 8 10 1012.6 - 0.0 - - 10 - - - -
05/07:00pm 27.2 ENE 8 10 1012.5 - 0.0 - - 10 - - - -
05/06:30pm 27.5 ENE 11 13 1012.5 - 0.0 - - 10 - - - -
05/06:00pm 28.1 ENE 13 16 1012.3 R 0.0 - - 10 - - - -
05/05:30pm 28.9 ENE 14 17 1011.9 - 0.0 - Mostly clear 10 - - - -
05/05:00pm 29.4 ENE 16 18 1011.8 - 0.0 - Mostly clear 10 - - - -
05/04:30pm 29.8 ENE 15 18 1011.6 - 0.0 - Mostly clear 10 - - - -
05/04:00pm 29.9 ENE 15 18 1011.6 - 0.0 - Mostly clear 10 - - - -
05/03:30pm 30.5 ENE 16 18 1011.7 - 0.0 - Mostly clear 10 - - - -
05/03:00pm 30.5 ENE 16 20 1012.0 R 0.0 - Mostly clear 10 - - - -
05/02:30pm 30.8 NE 16 19 1012.2 - 0.0 - Mostly clear 10 - - - -
05/02:00pm 31.0 NE 16 19 1012.4 - 0.0 - Mostly clear 10 - - - -
05/01:30pm 30.1 NE 16 21 1012.5 - 0.0 - Mostly clear 10 - - - -
05/01:00pm 30.5 NE 15 18 1012.9 - 0.0 - Mostly clear 10 - - - -
05/12:30pm 30.7 NE 14 19 1013.4 - 0.0 - Mostly clear 10 - - - -
05/12:00pm 30.9 NE 13 16 1013.7 F 0.0 - Mostly clear 10 - - - -
05/11:30am 30.8 NE 13 17 1014.2 - 0.0 - Mostly clear 10 - - - -
05/11:00am 30.1 NE 12 16 1014.6 - 0.0 - Mostly clear 10 - - - -
05/10:30am 30.1 ENE 11 15 1014.9 - 0.0 - Mostly clear 10 - - - -
05/10:00am 29.6 NE 10 16 1015.0 - 0.0 - Mostly clear 10 - - - -
05/09:30am 30.0 ENE 11 15 1015.2 - 0.0 - Mostly clear 10 - - - -
05/09:00am 30.4 ENE 9 14 1015.4 R 0.0 - Mostly clear 10 - - - -
05/08:30am 29.6 ENE 9 15 1015.3 - 0.0 - Mostly clear 10 - - - -
05/08:00am 28.5 ENE 9 13 1015.2 - 0.0 - Partly cloudy 10 - - - -
05/07:30am 28.6 ESE 8 11 1015.2 - 0.0 - Partly cloudy 10 - - - -
05/07:00am 28.2 ESE 8 11 1014.9 - 0.0 - Mostly clear 10 - - - -
05/06:30am 27.2 SE 7 8 1014.6 - 0.0 - Partly cloudy 10 - - - -
05/06:00am 26.1 SSE 6 8 1014.0 R 0.0 - Partly cloudy 10 - - - -
05/05:30am 25.4 SSE 5 7 1013.7 - 0.0 - Partly cloudy 10 - - - -
05/05:00am 25.4 SSE 4 5 1013.3 - 0.0 - Partly cloudy 10 - - - -
05/04:30am 25.3 ESE 4 5 1013.1 - 0.0 - Partly cloudy 10 - - - -
05/04:00am 25.8 ESE 4 5 1012.9 - 0.0 - Partly cloudy 10 - - - -
05/03:30am 26.2 SE 5 7 1012.5 - 0.0 - Partly cloudy 10 - - - -
05/03:00am 26.4 ENE 6 8 1012.6 R 0.0 - Cloudy 10 - - - -
05/02:30am 26.6 ENE 7 9 1012.5 - 0.0 - Partly cloudy 10 - - - -
05/02:00am 26.5 ENE 8 9 1012.7 - 0.0 - Partly cloudy 10 - - - -
05/01:30am 26.4 E 5 8 1012.8 - 0.0 - Partly cloudy 10 - - - -
05/01:00am 26.4 ENE 7 9 1013.1 - 0.0 - Partly cloudy 10 - - - -
05/12:30am 26.5 ENE 7 8 1013.4 - 0.0 - Partly cloudy 10 - - - -
05/12:00am 26.8 E 7 9 1013.8 R 0.0 - Cloudy 10 - - - -
 
Date/Time
EST
Temp
°C
Wind Pressure Rain since
9am
mm
Weather Cloud Vis
km
Sea
Height
m
Swell
Dir  Spd
kts
Gust
kts
hPa Trend Height
m
Period
s
Dir
04/11:30pm 26.9 ENE 6 8 1013.9 - 0.0 - Partly cloudy 10 - - - -
04/11:00pm 27.0 ENE 6 8 1013.9 - 0.0 - Partly cloudy 10 - - - -
04/10:30pm 26.9 NNE 5 6 1014.0 - 0.0 - Partly cloudy 10 - - - -
04/10:00pm 26.4 NE 6 7 1013.8 - 0.0 - Partly cloudy 10 - - - -
04/09:30pm 26.9 NE 6 8 1013.7 - 0.0 - Partly cloudy 10 - - - -
04/09:00pm 27.1 NE 6 8 1013.4 F 0.0 - Mostly clear 10 - - - -
04/08:30pm 27.1 NE 7 10 1013.2 - 0.0 - - 10 - - - -
04/08:00pm 27.3 NE 8 10 1013.0 - 0.0 - - 10 - - - -
04/07:30pm 27.3 NE 7 9 1012.9 - 0.0 - - 10 - - - -
04/07:00pm 27.4 NE 9 11 1012.7 - 0.0 - - 10 - - - -

Other Formats:

Comma delimited format used in spreadsheet applications
http://www.bom.gov.au/fwo/IDQ60701/IDQ60701.94294.axf

JavaScript Object Notation format (JSON) in row-major order
http://www.bom.gov.au/fwo/IDQ60701/IDQ60701.94294.json